sensor_id;sensor_type;location;lat;lon;timestamp;temperature;humidity
56137;DHT22;42008;52.934;5.884;2023-03-01T00:02:19;1.30;1.00
56137;DHT22;42008;52.934;5.884;2023-03-01T00:04:45;1.70;1.00
56137;DHT22;42008;52.934;5.884;2023-03-01T00:07:10;2.40;1.00
56137;DHT22;42008;52.934;5.884;2023-03-01T00:09:36;1.20;1.00
56137;DHT22;42008;52.934;5.884;2023-03-01T00:12:03;1.80;99.90
56137;DHT22;42008;52.934;5.884;2023-03-01T00:14:29;1.30;99.90
56137;DHT22;42008;52.934;5.884;2023-03-01T00:16:54;1.20;99.90
56137;DHT22;42008;52.934;5.884;2023-03-01T00:19:20;1.10;99.90
56137;DHT22;42008;52.934;5.884;2023-03-01T00:21:47;-0.10;99.90
56137;DHT22;42008;52.934;5.884;2023-03-01T00:24:13;0.50;99.90
56137;DHT22;42008;52.934;5.884;2023-03-01T00:26:38;0.60;99.90
56137;DHT22;42008;52.934;5.884;2023-03-01T00:29:04;1.10;99.90
56137;DHT22;42008;52.934;5.884;2023-03-01T00:31:31;1.40;99.90
56137;DHT22;42008;52.934;5.884;2023-03-01T00:33:59;0.90;99.90
56137;DHT22;42008;52.934;5.884;2023-03-01T00:36:29;1.10;99.90
56137;DHT22;42008;52.934;5.884;2023-03-01T00:38:55;0.70;99.90
56137;DHT22;42008;52.934;5.884;2023-03-01T00:41:23;1.10;99.90
56137;DHT22;42008;52.934;5.884;2023-03-01T00:43:49;0.90;99.90
56137;DHT22;42008;52.934;5.884;2023-03-01T00:46:21;1.00;99.90
56137;DHT22;42008;52.934;5.884;2023-03-01T00:48:47;-0.40;99.90
56137;DHT22;42008;52.934;5.884;2023-03-01T00:51:22;0.90;99.90
56137;DHT22;42008;52.934;5.884;2023-03-01T00:53:51;0.20;99.90
56137;DHT22;42008;52.934;5.884;2023-03-01T00:56:17;0.70;99.90
56137;DHT22;42008;52.934;5.884;2023-03-01T00:58:42;-0.90;99.90
56137;DHT22;42008;52.934;5.884;2023-03-01T01:01:11;0.20;1.00
56137;DHT22;42008;52.934;5.884;2023-03-01T01:06:19;0.70;1.00
56137;DHT22;42008;52.934;5.884;2023-03-01T01:08:45;-0.30;1.00
56137;DHT22;42008;52.934;5.884;2023-03-01T01:11:12;-0.10;1.00
56137;DHT22;42008;52.934;5.884;2023-03-01T01:13:39;0.50;1.00
56137;DHT22;42008;52.934;5.884;2023-03-01T01:16:05;0.40;99.90
56137;DHT22;42008;52.934;5.884;2023-03-01T01:18:31;0.10;99.90
56137;DHT22;42008;52.934;5.884;2023-03-01T01:20:57;-0.50;99.90
56137;DHT22;42008;52.934;5.884;2023-03-01T01:23:22;0.80;99.90
56137;DHT22;42008;52.934;5.884;2023-03-01T01:25:48;0.60;1.00
56137;DHT22;42008;52.934;5.884;2023-03-01T01:28:14;0.70;1.00
56137;DHT22;42008;52.934;5.884;2023-03-01T01:30:39;0.20;1.00
56137;DHT22;42008;52.934;5.884;2023-03-01T01:33:05;0.50;1.00
56137;DHT22;42008;52.934;5.884;2023-03-01T01:35:30;0.30;1.00
56137;DHT22;42008;52.934;5.884;2023-03-01T01:37:56;-0.40;1.00
56137;DHT22;42008;52.934;5.884;2023-03-01T01:40:22;0.30;1.00
56137;DHT22;42008;52.934;5.884;2023-03-01T01:42:47;0.30;1.00
56137;DHT22;42008;52.934;5.884;2023-03-01T01:45:34;-0.40;1.00
56137;DHT22;42008;52.934;5.884;2023-03-01T01:48:22;-0.20;1.00
56137;DHT22;42008;52.934;5.884;2023-03-01T01:50:55;-0.40;1.00
56137;DHT22;42008;52.934;5.884;2023-03-01T01:53:22;0.50;1.00
56137;DHT22;42008;52.934;5.884;2023-03-01T01:55:54;0.50;1.00
56137;DHT22;42008;52.934;5.884;2023-03-01T01:58:24;0.20;1.00
56137;DHT22;42008;52.934;5.884;2023-03-01T02:00:50;0.60;1.00
56137;DHT22;42008;52.934;5.884;2023-03-01T02:03:25;-0.50;1.00
56137;DHT22;42008;52.934;5.884;2023-03-01T02:05:58;-1.30;1.00
56137;DHT22;42008;52.934;5.884;2023-03-01T02:08:29;0.50;1.00
56137;DHT22;42008;52.934;5.884;2023-03-01T02:10:56;0.30;1.00
56137;DHT22;42008;52.934;5.884;2023-03-01T02:13:22;-0.40;1.00
56137;DHT22;42008;52.934;5.884;2023-03-01T02:15:48;-0.20;1.00
56137;DHT22;42008;52.934;5.884;2023-03-01T02:18:16;0.30;1.00
56137;DHT22;42008;52.934;5.884;2023-03-01T02:21:08;0.00;1.00
56137;DHT22;42008;52.934;5.884;2023-03-01T02:23:35;-1.10;1.00
56137;DHT22;42008;52.934;5.884;2023-03-01T02:26:07;0.60;1.00
56137;DHT22;42008;52.934;5.884;2023-03-01T02:28:37;0.10;1.00
56137;DHT22;42008;52.934;5.884;2023-03-01T02:31:07;-1.20;1.00
56137;DHT22;42008;52.934;5.884;2023-03-01T02:33:53;-1.20;1.00
56137;DHT22;42008;52.934;5.884;2023-03-01T02:36:28;-0.10;1.00
56137;DHT22;42008;52.934;5.884;2023-03-01T02:39:00;-0.40;1.00
56137;DHT22;42008;52.934;5.884;2023-03-01T02:41:30;-0.50;1.00
56137;DHT22;42008;52.934;5.884;2023-03-01T02:43:57;-0.10;1.00
56137;DHT22;42008;52.934;5.884;2023-03-01T02:46:24;-0.40;1.00
56137;DHT22;42008;52.934;5.884;2023-03-01T02:48:57;-1.30;99.90
56137;DHT22;42008;52.934;5.884;2023-03-01T02:51:42;-0.30;1.00
56137;DHT22;42008;52.934;5.884;2023-03-01T02:54:31;-0.60;1.00
56137;DHT22;42008;52.934;5.884;2023-03-01T02:56:59;-1.30;1.00
56137;DHT22;42008;52.934;5.884;2023-03-01T02:59:27;-0.80;1.00
56137;DHT22;42008;52.934;5.884;2023-03-01T03:01:54;-0.20;1.00
56137;DHT22;42008;52.934;5.884;2023-03-01T03:04:20;0.30;1.00
56137;DHT22;42008;52.934;5.884;2023-03-01T03:06:48;0.40;1.00
56137;DHT22;42008;52.934;5.884;2023-03-01T03:09:15;-0.90;1.00
56137;DHT22;42008;52.934;5.884;2023-03-01T03:11:41;0.50;1.00
56137;DHT22;42008;52.934;5.884;2023-03-01T03:14:12;-1.00;1.00
56137;DHT22;42008;52.934;5.884;2023-03-01T03:16:42;0.50;18.80
56137;DHT22;42008;52.934;5.884;2023-03-01T03:19:08;-0.40;70.20
56137;DHT22;42008;52.934;5.884;2023-03-01T03:21:34;0.30;99.90
56137;DHT22;42008;52.934;5.884;2023-03-01T03:24:00;-0.30;99.90
56137;DHT22;42008;52.934;5.884;2023-03-01T03:26:26;-0.30;99.90
56137;DHT22;42008;52.934;5.884;2023-03-01T03:28:51;0.40;99.90
56137;DHT22;42008;52.934;5.884;2023-03-01T03:31:17;-0.10;99.90
56137;DHT22;42008;52.934;5.884;2023-03-01T03:33:42;-1.00;1.00
56137;DHT22;42008;52.934;5.884;2023-03-01T03:36:08;-1.00;1.00
56137;DHT22;42008;52.934;5.884;2023-03-01T03:38:39;-0.90;1.00
56137;DHT22;42008;52.934;5.884;2023-03-01T03:41:06;-0.90;1.00
56137;DHT22;42008;52.934;5.884;2023-03-01T03:43:34;0.00;1.00
56137;DHT22;42008;52.934;5.884;2023-03-01T03:46:01;-0.50;99.90
56137;DHT22;42008;52.934;5.884;2023-03-01T03:48:34;-0.60;99.90
56137;DHT22;42008;52.934;5.884;2023-03-01T03:51:00;-0.30;99.90
56137;DHT22;42008;52.934;5.884;2023-03-01T03:53:27;-0.30;99.90
56137;DHT22;42008;52.934;5.884;2023-03-01T03:55:54;-0.30;99.90
56137;DHT22;42008;52.934;5.884;2023-03-01T03:58:21;-0.30;99.90
56137;DHT22;42008;52.934;5.884;2023-03-01T04:00:50;-0.90;99.90
56137;DHT22;42008;52.934;5.884;2023-03-01T04:03:17;-0.80;1.00
56137;DHT22;42008;52.934;5.884;2023-03-01T04:05:44;-0.80;1.00
56137;DHT22;42008;52.934;5.884;2023-03-01T04:08:10;0.30;1.00
56137;DHT22;42008;52.934;5.884;2023-03-01T04:10:38;-0.50;1.00
56137;DHT22;42008;52.934;5.884;2023-03-01T04:13:05;-0.60;1.00
56137;DHT22;42008;52.934;5.884;2023-03-01T04:15:32;0.10;1.00
56137;DHT22;42008;52.934;5.884;2023-03-01T04:17:59;-0.30;1.00
56137;DHT22;42008;52.934;5.884;2023-03-01T04:20:27;-0.50;1.00
56137;DHT22;42008;52.934;5.884;2023-03-01T04:23:13;0.70;1.00
56137;DHT22;42008;52.934;5.884;2023-03-01T04:25:45;-0.40;1.00
56137;DHT22;42008;52.934;5.884;2023-03-01T04:28:11;-0.60;1.00
56137;DHT22;42008;52.934;5.884;2023-03-01T04:30:37;-0.10;1.00
56137;DHT22;42008;52.934;5.884;2023-03-01T04:33:08;0.00;1.00
56137;DHT22;42008;52.934;5.884;2023-03-01T04:35:34;-0.90;1.00
56137;DHT22;42008;52.934;5.884;2023-03-01T04:38:00;-0.90;1.00
56137;DHT22;42008;52.934;5.884;2023-03-01T04:40:26;0.40;27.30
56137;DHT22;42008;52.934;5.884;2023-03-01T04:42:52;-0.90;90.00
56137;DHT22;42008;52.934;5.884;2023-03-01T04:45:17;-0.90;86.90
56137;DHT22;42008;52.934;5.884;2023-03-01T04:47:44;0.30;99.90
56137;DHT22;42008;52.934;5.884;2023-03-01T04:50:13;-0.20;99.90
56137;DHT22;42008;52.934;5.884;2023-03-01T04:52:38;-0.70;99.90
56137;DHT22;42008;52.934;5.884;2023-03-01T04:55:04;-0.90;99.90
56137;DHT22;42008;52.934;5.884;2023-03-01T04:57:30;0.70;99.90
56137;DHT22;42008;52.934;5.884;2023-03-01T04:59:56;0.40;40.00
56137;DHT22;42008;52.934;5.884;2023-03-01T05:02:22;0.50;1.00
56137;DHT22;42008;52.934;5.884;2023-03-01T05:04:47;-0.20;1.00
56137;DHT22;42008;52.934;5.884;2023-03-01T05:07:13;-0.50;1.00
56137;DHT22;42008;52.934;5.884;2023-03-01T05:09:47;0.40;1.00
56137;DHT22;42008;52.934;5.884;2023-03-01T05:12:13;0.10;1.00
56137;DHT22;42008;52.934;5.884;2023-03-01T05:14:39;-0.50;1.00
56137;DHT22;42008;52.934;5.884;2023-03-01T05:17:05;-1.10;1.00
56137;DHT22;42008;52.934;5.884;2023-03-01T05:19:31;-1.10;1.00
56137;DHT22;42008;52.934;5.884;2023-03-01T05:21:58;-1.10;1.00
56137;DHT22;42008;52.934;5.884;2023-03-01T05:24:28;-0.10;1.00
56137;DHT22;42008;52.934;5.884;2023-03-01T05:26:54;-0.80;1.00
56137;DHT22;42008;52.934;5.884;2023-03-01T05:29:21;0.30;1.00
56137;DHT22;42008;52.934;5.884;2023-03-01T05:31:59;-0.30;1.00
56137;DHT22;42008;52.934;5.884;2023-03-01T05:34:29;-1.00;1.00
56137;DHT22;42008;52.934;5.884;2023-03-01T05:36:55;-0.60;1.00
56137;DHT22;42008;52.934;5.884;2023-03-01T05:39:23;0.20;1.00
56137;DHT22;42008;52.934;5.884;2023-03-01T05:41:53;-0.10;1.00
56137;DHT22;42008;52.934;5.884;2023-03-01T05:44:18;0.20;1.00
56137;DHT22;42008;52.934;5.884;2023-03-01T05:46:44;-1.00;1.00
56137;DHT22;42008;52.934;5.884;2023-03-01T05:49:11;-0.70;1.00
56137;DHT22;42008;52.934;5.884;2023-03-01T05:51:39;-1.50;1.00
56137;DHT22;42008;52.934;5.884;2023-03-01T05:54:04;-1.60;1.00
56137;DHT22;42008;52.934;5.884;2023-03-01T05:56:33;0.00;1.00
56137;DHT22;42008;52.934;5.884;2023-03-01T05:58:59;-0.90;1.00
56137;DHT22;42008;52.934;5.884;2023-03-01T06:01:25;-0.30;99.90
56137;DHT22;42008;52.934;5.884;2023-03-01T06:03:51;-0.40;1.00
56137;DHT22;42008;52.934;5.884;2023-03-01T06:06:16;-1.00;1.00
56137;DHT22;42008;52.934;5.884;2023-03-01T06:08:42;-0.10;1.00
56137;DHT22;42008;52.934;5.884;2023-03-01T06:11:07;-0.30;1.00
56137;DHT22;42008;52.934;5.884;2023-03-01T06:13:33;-0.80;1.00
56137;DHT22;42008;52.934;5.884;2023-03-01T06:15:59;-0.30;1.00
56137;DHT22;42008;52.934;5.884;2023-03-01T06:18:24;-1.20;1.00
56137;DHT22;42008;52.934;5.884;2023-03-01T06:20:54;-0.20;1.00
56137;DHT22;42008;52.934;5.884;2023-03-01T06:23:20;-0.10;1.00
56137;DHT22;42008;52.934;5.884;2023-03-01T06:25:46;-0.50;1.00
56137;DHT22;42008;52.934;5.884;2023-03-01T06:28:12;-0.80;1.00
56137;DHT22;42008;52.934;5.884;2023-03-01T06:30:37;-0.10;1.00
56137;DHT22;42008;52.934;5.884;2023-03-01T06:33:03;-0.70;1.00
56137;DHT22;42008;52.934;5.884;2023-03-01T06:35:29;-0.60;1.00
56137;DHT22;42008;52.934;5.884;2023-03-01T06:37:57;-0.70;1.00
56137;DHT22;42008;52.934;5.884;2023-03-01T06:40:23;-1.10;1.00
56137;DHT22;42008;52.934;5.884;2023-03-01T06:42:50;-0.60;1.00
56137;DHT22;42008;52.934;5.884;2023-03-01T06:45:17;-0.40;1.00
56137;DHT22;42008;52.934;5.884;2023-03-01T06:47:43;-1.40;1.00
56137;DHT22;42008;52.934;5.884;2023-03-01T06:50:09;-0.10;1.00
56137;DHT22;42008;52.934;5.884;2023-03-01T06:52:34;-0.10;1.00
56137;DHT22;42008;52.934;5.884;2023-03-01T06:55:00;0.30;1.00
56137;DHT22;42008;52.934;5.884;2023-03-01T06:57:26;-0.10;1.00
56137;DHT22;42008;52.934;5.884;2023-03-01T06:59:52;-1.00;1.00
56137;DHT22;42008;52.934;5.884;2023-03-01T07:02:18;-1.00;1.00
56137;DHT22;42008;52.934;5.884;2023-03-01T07:04:44;-0.70;1.00
56137;DHT22;42008;52.934;5.884;2023-03-01T07:07:10;-1.20;1.00
56137;DHT22;42008;52.934;5.884;2023-03-01T07:09:36;-0.40;1.00
56137;DHT22;42008;52.934;5.884;2023-03-01T07:12:02;0.00;1.00
56137;DHT22;42008;52.934;5.884;2023-03-01T07:14:28;-0.30;1.00
56137;DHT22;42008;52.934;5.884;2023-03-01T07:16:54;-0.70;1.00
56137;DHT22;42008;52.934;5.884;2023-03-01T07:19:20;0.00;1.00
56137;DHT22;42008;52.934;5.884;2023-03-01T07:21:45;0.80;1.00
56137;DHT22;42008;52.934;5.884;2023-03-01T07:24:11;0.00;1.00
56137;DHT22;42008;52.934;5.884;2023-03-01T07:26:37;0.30;1.00
56137;DHT22;42008;52.934;5.884;2023-03-01T07:29:05;0.30;1.00
56137;DHT22;42008;52.934;5.884;2023-03-01T07:31:31;0.80;1.00
56137;DHT22;42008;52.934;5.884;2023-03-01T07:33:56;1.20;1.00
56137;DHT22;42008;52.934;5.884;2023-03-01T07:36:22;0.20;1.00
56137;DHT22;42008;52.934;5.884;2023-03-01T07:38:48;0.30;99.90
56137;DHT22;42008;52.934;5.884;2023-03-01T07:41:14;1.60;99.90
56137;DHT22;42008;52.934;5.884;2023-03-01T07:43:39;1.10;99.90
56137;DHT22;42008;52.934;5.884;2023-03-01T07:46:06;1.10;99.90
56137;DHT22;42008;52.934;5.884;2023-03-01T07:48:33;0.90;99.90
56137;DHT22;42008;52.934;5.884;2023-03-01T07:51:04;1.30;99.90
56137;DHT22;42008;52.934;5.884;2023-03-01T07:53:31;0.60;99.90
56137;DHT22;42008;52.934;5.884;2023-03-01T07:56:07;1.20;99.90
56137;DHT22;42008;52.934;5.884;2023-03-01T07:58:38;2.00;99.90
56137;DHT22;42008;52.934;5.884;2023-03-01T08:01:05;0.50;99.90
56137;DHT22;42008;52.934;5.884;2023-03-01T08:03:31;2.00;99.90
56137;DHT22;42008;52.934;5.884;2023-03-01T08:06:00;1.30;99.90
56137;DHT22;42008;52.934;5.884;2023-03-01T08:08:26;1.40;99.90
56137;DHT22;42008;52.934;5.884;2023-03-01T08:10:51;1.70;99.90
56137;DHT22;42008;52.934;5.884;2023-03-01T08:13:17;2.10;99.90
56137;DHT22;42008;52.934;5.884;2023-03-01T08:15:48;1.60;99.90
56137;DHT22;42008;52.934;5.884;2023-03-01T08:18:14;3.00;99.90
56137;DHT22;42008;52.934;5.884;2023-03-01T08:20:40;2.90;99.90
56137;DHT22;42008;52.934;5.884;2023-03-01T08:23:05;2.30;99.90
56137;DHT22;42008;52.934;5.884;2023-03-01T08:25:31;2.30;99.90
56137;DHT22;42008;52.934;5.884;2023-03-01T08:27:56;3.20;99.90
56137;DHT22;42008;52.934;5.884;2023-03-01T08:30:22;3.30;99.90
56137;DHT22;42008;52.934;5.884;2023-03-01T08:32:49;3.00;99.90
56137;DHT22;42008;52.934;5.884;2023-03-01T08:35:15;3.40;99.90
56137;DHT22;42008;52.934;5.884;2023-03-01T08:37:40;2.90;99.90
56137;DHT22;42008;52.934;5.884;2023-03-01T08:40:06;3.40;99.90
56137;DHT22;42008;52.934;5.884;2023-03-01T08:42:35;2.90;99.90
56137;DHT22;42008;52.934;5.884;2023-03-01T08:45:02;4.30;99.90
56137;DHT22;42008;52.934;5.884;2023-03-01T08:47:28;4.50;32.20
56137;DHT22;42008;52.934;5.884;2023-03-01T08:49:53;4.00;1.00
56137;DHT22;42008;52.934;5.884;2023-03-01T08:52:19;3.50;1.00
56137;DHT22;42008;52.934;5.884;2023-03-01T08:54:47;3.60;1.00
56137;DHT22;42008;52.934;5.884;2023-03-01T08:57:12;4.70;1.00
56137;DHT22;42008;52.934;5.884;2023-03-01T08:59:38;4.70;1.00
56137;DHT22;42008;52.934;5.884;2023-03-01T09:02:05;4.50;99.90
56137;DHT22;42008;52.934;5.884;2023-03-01T09:04:34;5.10;99.90
56137;DHT22;42008;52.934;5.884;2023-03-01T09:06:59;5.40;99.90
56137;DHT22;42008;52.934;5.884;2023-03-01T09:09:25;5.60;99.90
56137;DHT22;42008;52.934;5.884;2023-03-01T09:11:50;5.60;99.90
56137;DHT22;42008;52.934;5.884;2023-03-01T09:14:16;5.10;99.90
56137;DHT22;42008;52.934;5.884;2023-03-01T09:16:42;5.30;99.90
56137;DHT22;42008;52.934;5.884;2023-03-01T09:19:08;5.40;99.90
56137;DHT22;42008;52.934;5.884;2023-03-01T09:21:34;5.80;99.90
56137;DHT22;42008;52.934;5.884;2023-03-01T09:23:59;5.90;70.40
56137;DHT22;42008;52.934;5.884;2023-03-01T09:26:25;5.10;35.60
56137;DHT22;42008;52.934;5.884;2023-03-01T09:28:54;5.80;1.00
56137;DHT22;42008;52.934;5.884;2023-03-01T09:31:22;5.90;1.00
56137;DHT22;42008;52.934;5.884;2023-03-01T09:33:49;5.40;99.90
56137;DHT22;42008;52.934;5.884;2023-03-01T09:36:18;5.70;99.90
56137;DHT22;42008;52.934;5.884;2023-03-01T09:38:44;5.60;99.90
56137;DHT22;42008;52.934;5.884;2023-03-01T09:41:38;5.90;99.90
56137;DHT22;42008;52.934;5.884;2023-03-01T09:44:13;6.20;99.90
56137;DHT22;42008;52.934;5.884;2023-03-01T09:46:43;5.30;1.00
56137;DHT22;42008;52.934;5.884;2023-03-01T09:49:17;6.10;99.90
56137;DHT22;42008;52.934;5.884;2023-03-01T09:51:53;6.10;99.90
56137;DHT22;42008;52.934;5.884;2023-03-01T09:54:19;6.00;99.90
56137;DHT22;42008;52.934;5.884;2023-03-01T09:59:51;6.30;99.90
56137;DHT22;42008;52.934;5.884;2023-03-01T10:02:31;6.60;1.00
56137;DHT22;42008;52.934;5.884;2023-03-01T10:05:09;6.60;1.00
56137;DHT22;42008;52.934;5.884;2023-03-01T10:07:58;6.60;99.90
56137;DHT22;42008;52.934;5.884;2023-03-01T10:10:32;7.20;99.90
56137;DHT22;42008;52.934;5.884;2023-03-01T10:13:02;7.10;99.90
56137;DHT22;42008;52.934;5.884;2023-03-01T10:15:35;7.10;99.90
56137;DHT22;42008;52.934;5.884;2023-03-01T10:18:09;7.20;99.90
56137;DHT22;42008;52.934;5.884;2023-03-01T10:20:58;6.80;19.80
56137;DHT22;42008;52.934;5.884;2023-03-01T10:23:25;6.90;1.00
56137;DHT22;42008;52.934;5.884;2023-03-01T10:26:14;7.30;1.00
56137;DHT22;42008;52.934;5.884;2023-03-01T10:29:09;7.60;99.90
56137;DHT22;42008;52.934;5.884;2023-03-01T10:31:51;7.30;99.90
56137;DHT22;42008;52.934;5.884;2023-03-01T10:34:27;7.90;99.90
56137;DHT22;42008;52.934;5.884;2023-03-01T10:37:28;8.20;99.90
56137;DHT22;42008;52.934;5.884;2023-03-01T10:39:56;8.40;99.90
56137;DHT22;42008;52.934;5.884;2023-03-01T10:42:29;9.10;99.90
56137;DHT22;42008;52.934;5.884;2023-03-01T10:44:55;9.00;99.90
56137;DHT22;42008;52.934;5.884;2023-03-01T10:47:25;8.90;1.00
56137;DHT22;42008;52.934;5.884;2023-03-01T10:50:03;9.20;1.00
56137;DHT22;42008;52.934;5.884;2023-03-01T10:52:36;9.00;99.90
56137;DHT22;42008;52.934;5.884;2023-03-01T10:57:36;9.80;99.90
56137;DHT22;42008;52.934;5.884;2023-03-01T11:00:28;10.10;99.90
56137;DHT22;42008;52.934;5.884;2023-03-01T11:03:11;9.80;1.00
56137;DHT22;42008;52.934;5.884;2023-03-01T11:08:34;9.90;1.00
56137;DHT22;42008;52.934;5.884;2023-03-01T11:11:05;10.10;99.90
56137;DHT22;42008;52.934;5.884;2023-03-01T11:13:31;10.10;1.00
56137;DHT22;42008;52.934;5.884;2023-03-01T11:16:03;10.20;82.60
56137;DHT22;42008;52.934;5.884;2023-03-01T11:18:30;9.90;40.40
56137;DHT22;42008;52.934;5.884;2023-03-01T11:20:56;9.90;46.60
56137;DHT22;42008;52.934;5.884;2023-03-01T11:23:23;10.60;72.30
56137;DHT22;42008;52.934;5.884;2023-03-01T11:25:56;10.40;43.30
56137;DHT22;42008;52.934;5.884;2023-03-01T11:28:23;11.00;1.00
56137;DHT22;42008;52.934;5.884;2023-03-01T11:36:01;11.90;1.00
56137;DHT22;42008;52.934;5.884;2023-03-01T11:38:28;12.30;1.00
56137;DHT22;42008;52.934;5.884;2023-03-01T11:41:17;12.00;99.90
56137;DHT22;42008;52.934;5.884;2023-03-01T11:44:03;12.10;99.90
56137;DHT22;42008;52.934;5.884;2023-03-01T11:49:48;11.80;1.00
56137;DHT22;42008;52.934;5.884;2023-03-01T11:52:31;12.10;99.90
56137;DHT22;42008;52.934;5.884;2023-03-01T12:03:29;11.80;99.90
56137;DHT22;42008;52.934;5.884;2023-03-01T12:06:01;12.10;99.90
56137;DHT22;42008;52.934;5.884;2023-03-01T12:08:41;12.20;99.90
56137;DHT22;42008;52.934;5.884;2023-03-01T12:14:01;13.20;99.90
56137;DHT22;42008;52.934;5.884;2023-03-01T12:16:53;14.00;1.00
56137;DHT22;42008;52.934;5.884;2023-03-01T12:19:27;14.40;99.90
56137;DHT22;42008;52.934;5.884;2023-03-01T12:30:16;14.40;99.90
56137;DHT22;42008;52.934;5.884;2023-03-01T12:47:00;15.70;78.90
56137;DHT22;42008;52.934;5.884;2023-03-01T12:49:45;16.90;99.90
56137;DHT22;42008;52.934;5.884;2023-03-01T12:52:41;16.70;99.90
56137;DHT22;42008;52.934;5.884;2023-03-01T12:55:23;17.50;99.90
56137;DHT22;42008;52.934;5.884;2023-03-01T13:04:05;19.20;66.90
56137;DHT22;42008;52.934;5.884;2023-03-01T13:09:39;20.30;61.70
56137;DHT22;42008;52.934;5.884;2023-03-01T13:15:24;20.30;78.40
56137;DHT22;42008;52.934;5.884;2023-03-01T13:17:58;20.10;1.00
56137;DHT22;42008;52.934;5.884;2023-03-01T13:20:32;20.30;1.00
56137;DHT22;42008;52.934;5.884;2023-03-01T13:23:12;21.20;1.00
56137;DHT22;42008;52.934;5.884;2023-03-01T13:26:05;20.80;99.90
56137;DHT22;42008;52.934;5.884;2023-03-01T13:33:56;23.00;99.90
56137;DHT22;42008;52.934;5.884;2023-03-01T13:39:31;23.30;99.90
56137;DHT22;42008;52.934;5.884;2023-03-01T13:41:58;22.80;99.90
56137;DHT22;42008;52.934;5.884;2023-03-01T13:44:36;23.30;99.90
56137;DHT22;42008;52.934;5.884;2023-03-01T13:49:57;22.90;99.90
56137;DHT22;42008;52.934;5.884;2023-03-01T13:52:50;22.40;1.00
56137;DHT22;42008;52.934;5.884;2023-03-01T13:55:43;22.50;1.00
56137;DHT22;42008;52.934;5.884;2023-03-01T13:58:33;21.50;1.00
56137;DHT22;42008;52.934;5.884;2023-03-01T14:01:21;23.20;1.00
56137;DHT22;42008;52.934;5.884;2023-03-01T14:03:48;21.70;1.00
56137;DHT22;42008;52.934;5.884;2023-03-01T14:06:16;22.70;1.00
56137;DHT22;42008;52.934;5.884;2023-03-01T14:08:46;22.80;1.00
56137;DHT22;42008;52.934;5.884;2023-03-01T14:19:43;21.70;1.00
56137;DHT22;42008;52.934;5.884;2023-03-01T14:22:14;22.50;1.00
56137;DHT22;42008;52.934;5.884;2023-03-01T14:24:48;21.80;1.00
56137;DHT22;42008;52.934;5.884;2023-03-01T14:27:15;23.10;1.00
56137;DHT22;42008;52.934;5.884;2023-03-01T14:29:41;21.60;1.00
56137;DHT22;42008;52.934;5.884;2023-03-01T14:32:28;21.50;1.00
56137;DHT22;42008;52.934;5.884;2023-03-01T14:34:55;23.10;1.00
56137;DHT22;42008;52.934;5.884;2023-03-01T14:37:28;23.60;1.00
56137;DHT22;42008;52.934;5.884;2023-03-01T14:39:56;23.10;1.00
56137;DHT22;42008;52.934;5.884;2023-03-01T14:42:24;23.40;1.00
56137;DHT22;42008;52.934;5.884;2023-03-01T14:44:53;23.80;1.00
56137;DHT22;42008;52.934;5.884;2023-03-01T14:47:32;23.90;1.00
56137;DHT22;42008;52.934;5.884;2023-03-01T14:50:08;23.40;1.00
56137;DHT22;42008;52.934;5.884;2023-03-01T14:52:42;20.80;1.00
56137;DHT22;42008;52.934;5.884;2023-03-01T14:55:19;20.60;1.00
56137;DHT22;42008;52.934;5.884;2023-03-01T14:57:48;21.30;1.00
56137;DHT22;42008;52.934;5.884;2023-03-01T15:00:21;21.00;1.00
56137;DHT22;42008;52.934;5.884;2023-03-01T15:02:49;21.80;1.00
56137;DHT22;42008;52.934;5.884;2023-03-01T15:05:25;22.80;1.00
56137;DHT22;42008;52.934;5.884;2023-03-01T15:07:51;22.90;1.00
56137;DHT22;42008;52.934;5.884;2023-03-01T15:10:27;23.60;1.00
56137;DHT22;42008;52.934;5.884;2023-03-01T15:12:53;23.50;1.00
56137;DHT22;42008;52.934;5.884;2023-03-01T15:15:45;24.00;1.00
56137;DHT22;42008;52.934;5.884;2023-03-01T15:18:25;23.90;1.00
56137;DHT22;42008;52.934;5.884;2023-03-01T15:20:52;22.00;1.00
56137;DHT22;42008;52.934;5.884;2023-03-01T15:23:28;23.20;1.00
56137;DHT22;42008;52.934;5.884;2023-03-01T15:25:56;21.30;1.00
56137;DHT22;42008;52.934;5.884;2023-03-01T15:28:28;21.80;1.00
56137;DHT22;42008;52.934;5.884;2023-03-01T15:31:02;21.50;1.00
56137;DHT22;42008;52.934;5.884;2023-03-01T15:33:32;23.40;1.00
56137;DHT22;42008;52.934;5.884;2023-03-01T15:38:55;22.50;1.00
56137;DHT22;42008;52.934;5.884;2023-03-01T15:41:30;22.90;1.00
56137;DHT22;42008;52.934;5.884;2023-03-01T15:44:00;22.70;1.00
56137;DHT22;42008;52.934;5.884;2023-03-01T15:46:34;22.50;1.00
56137;DHT22;42008;52.934;5.884;2023-03-01T15:49:34;22.90;1.00
56137;DHT22;42008;52.934;5.884;2023-03-01T15:52:01;22.70;1.00
56137;DHT22;42008;52.934;5.884;2023-03-01T15:54:27;22.70;1.00
56137;DHT22;42008;52.934;5.884;2023-03-01T15:56:53;21.70;1.00
56137;DHT22;42008;52.934;5.884;2023-03-01T15:59:19;20.60;1.00
56137;DHT22;42008;52.934;5.884;2023-03-01T16:01:47;21.20;1.00
56137;DHT22;42008;52.934;5.884;2023-03-01T16:04:15;20.70;1.00
56137;DHT22;42008;52.934;5.884;2023-03-01T16:06:53;20.80;1.00
56137;DHT22;42008;52.934;5.884;2023-03-01T16:09:23;20.80;1.00
56137;DHT22;42008;52.934;5.884;2023-03-01T16:11:50;20.70;1.00
56137;DHT22;42008;52.934;5.884;2023-03-01T16:14:16;20.90;1.00
56137;DHT22;42008;52.934;5.884;2023-03-01T16:16:42;20.50;1.00
56137;DHT22;42008;52.934;5.884;2023-03-01T16:19:08;18.70;1.00
56137;DHT22;42008;52.934;5.884;2023-03-01T16:21:34;18.00;1.00
56137;DHT22;42008;52.934;5.884;2023-03-01T16:24:00;19.90;1.00
56137;DHT22;42008;52.934;5.884;2023-03-01T16:26:25;20.00;1.00
56137;DHT22;42008;52.934;5.884;2023-03-01T16:28:54;19.00;1.00
56137;DHT22;42008;52.934;5.884;2023-03-01T16:31:20;19.60;1.00
56137;DHT22;42008;52.934;5.884;2023-03-01T16:33:45;17.50;1.00
56137;DHT22;42008;52.934;5.884;2023-03-01T16:36:19;19.40;1.00
56137;DHT22;42008;52.934;5.884;2023-03-01T16:38:45;17.50;1.00
56137;DHT22;42008;52.934;5.884;2023-03-01T16:41:13;17.80;1.00
56137;DHT22;42008;52.934;5.884;2023-03-01T16:43:39;16.00;1.00
56137;DHT22;42008;52.934;5.884;2023-03-01T16:46:13;17.30;1.00
56137;DHT22;42008;52.934;5.884;2023-03-01T16:48:39;17.00;1.00
56137;DHT22;42008;52.934;5.884;2023-03-01T16:51:06;15.50;1.00
56137;DHT22;42008;52.934;5.884;2023-03-01T16:53:33;15.30;1.00
56137;DHT22;42008;52.934;5.884;2023-03-01T16:56:01;15.20;1.00
56137;DHT22;42008;52.934;5.884;2023-03-01T16:58:27;13.60;1.00
56137;DHT22;42008;52.934;5.884;2023-03-01T17:00:54;14.10;16.80
56137;DHT22;42008;52.934;5.884;2023-03-01T17:03:21;13.10;42.90
56137;DHT22;42008;52.934;5.884;2023-03-01T17:05:47;12.00;99.90
56137;DHT22;42008;52.934;5.884;2023-03-01T17:08:12;11.10;99.90
56137;DHT22;42008;52.934;5.884;2023-03-01T17:10:38;10.80;99.90
56137;DHT22;42008;52.934;5.884;2023-03-01T17:13:03;10.80;99.90
56137;DHT22;42008;52.934;5.884;2023-03-01T17:15:29;10.20;99.90
56137;DHT22;42008;52.934;5.884;2023-03-01T17:17:55;10.40;99.90
56137;DHT22;42008;52.934;5.884;2023-03-01T17:20:20;10.20;99.90
56137;DHT22;42008;52.934;5.884;2023-03-01T17:22:46;8.50;1.00
56137;DHT22;42008;52.934;5.884;2023-03-01T17:25:12;9.00;1.00
56137;DHT22;42008;52.934;5.884;2023-03-01T17:27:38;7.90;99.90
56137;DHT22;42008;52.934;5.884;2023-03-01T17:30:05;7.30;99.90
56137;DHT22;42008;52.934;5.884;2023-03-01T17:32:31;7.90;99.90